createdAt,value
2023-04-15T00:03:34.605Z,1.25
2023-04-15T00:08:41.940Z,1.33
2023-04-15T00:13:49.423Z,1.63
2023-04-15T00:18:52.956Z,1.33
2023-04-15T00:23:56.745Z,0.80
2023-04-15T00:29:01.974Z,2.28
2023-04-15T00:34:08.748Z,1.55
2023-04-15T00:39:12.252Z,1.55
2023-04-15T00:44:18.929Z,0.82
2023-04-15T00:49:22.574Z,1.30
2023-04-15T00:54:26.717Z,1.05
2023-04-15T00:59:32.901Z,1.08
2023-04-15T01:04:37.750Z,1.52
2023-04-15T01:09:42.108Z,0.98
2023-04-15T01:14:47.406Z,1.70
2023-04-15T01:19:54.786Z,0.85
2023-04-15T01:25:15.326Z,1.38
2023-04-15T01:30:22.980Z,0.73
2023-04-15T01:35:29.522Z,1.25
2023-04-15T01:40:36.147Z,0.90
2023-04-15T01:45:40.992Z,1.00
2023-04-15T01:50:47.912Z,0.80
2023-04-15T01:55:51.991Z,1.02
2023-04-15T02:00:57.067Z,0.90
2023-04-15T02:06:00.844Z,1.20
2023-04-15T02:11:05.573Z,1.08
2023-04-15T02:16:18.840Z,1.30
2023-04-15T02:21:25.200Z,1.67
2023-04-15T02:26:32.108Z,1.63
2023-04-15T02:31:40.577Z,1.40
2023-04-15T02:36:45.454Z,1.30
2023-04-15T02:41:54.833Z,1.60
2023-04-15T02:47:00.480Z,1.20
2023-04-15T02:52:04.037Z,1.20
2023-04-15T02:57:07.551Z,1.90
2023-04-15T03:02:13.004Z,1.00
2023-04-15T03:07:16.755Z,1.90
2023-04-15T03:12:20.366Z,1.55
2023-04-15T03:17:26.976Z,1.30
2023-04-15T03:22:33.204Z,2.70
2023-04-15T03:27:36.931Z,1.35
2023-04-15T03:32:42.256Z,1.42
2023-04-15T03:37:46.012Z,1.20
2023-04-15T03:42:56.661Z,1.40
2023-04-15T03:48:15.631Z,1.20
2023-04-15T03:53:24.393Z,1.35
2023-04-15T03:58:28.132Z,1.20
2023-04-15T04:03:33.750Z,1.30
2023-04-15T04:08:40.338Z,1.33
2023-04-15T04:13:43.928Z,0.70
2023-04-15T04:18:51.507Z,1.10
2023-04-15T04:23:55.041Z,2.22
2023-04-15T04:28:58.774Z,2.05
2023-04-15T04:34:04.024Z,1.38
2023-04-15T04:39:07.933Z,1.75
2023-04-15T04:44:11.750Z,1.38
2023-04-15T04:49:16.625Z,1.48
2023-04-15T04:54:20.092Z,1.02
2023-04-15T04:59:23.753Z,1.30
2023-04-15T05:04:32.220Z,1.17
2023-04-15T05:09:36.717Z,1.55
2023-04-15T05:14:40.177Z,1.77
2023-04-15T05:19:45.090Z,1.10
2023-04-15T05:24:48.664Z,2.90
2023-04-15T05:29:52.228Z,1.75
2023-04-15T05:34:57.089Z,1.75
2023-04-15T05:40:01.040Z,2.08
2023-04-15T05:45:05.564Z,1.77
2023-04-15T05:50:12.159Z,1.42
2023-04-15T05:55:15.638Z,2.47
2023-04-15T06:00:20.109Z,1.55
2023-04-15T06:05:25.211Z,1.08
2023-04-15T06:10:29.100Z,1.50
2023-04-15T06:15:35.937Z,1.98
2023-04-15T06:20:41.781Z,1.40
2023-04-15T06:25:45.793Z,1.20
2023-04-15T06:30:49.552Z,1.27
2023-04-15T06:35:54.392Z,1.40
2023-04-15T06:40:57.883Z,1.45
2023-04-15T06:46:01.465Z,1.50
2023-04-15T06:51:06.869Z,0.80
2023-04-15T06:56:10.967Z,1.40
2023-04-15T07:01:15.053Z,1.63
2023-04-15T07:06:22.948Z,1.65
2023-04-15T07:11:28.077Z,1.73
2023-04-15T07:16:31.700Z,1.92
2023-04-15T07:21:48.859Z,1.55
2023-04-15T07:26:52.468Z,2.07
2023-04-15T07:31:57.140Z,2.28
2023-04-15T07:37:02.079Z,1.13
2023-04-15T07:42:05.717Z,1.50
2023-04-15T07:47:09.136Z,1.25
2023-04-15T07:52:13.967Z,1.75
2023-04-15T07:57:18.412Z,1.63
2023-04-15T08:02:22.400Z,1.48
2023-04-15T08:07:27.505Z,1.48
2023-04-15T08:12:31.561Z,2.58
2023-04-15T08:17:35.025Z,2.38
2023-04-15T08:22:39.965Z,1.17
2023-04-15T08:27:43.424Z,1.83
2023-04-15T08:32:48.042Z,2.53
2023-04-15T08:37:53.072Z,2.60
2023-04-15T08:42:59.407Z,2.00
2023-04-15T08:48:07.167Z,2.30
2023-04-15T08:53:12.924Z,2.40
2023-04-15T08:58:17.744Z,2.55
2023-04-15T09:03:23.720Z,2.10
2023-04-15T09:08:28.798Z,2.33
2023-04-15T09:13:32.633Z,2.35
2023-04-15T09:18:39.904Z,1.60
2023-04-15T09:23:58.617Z,2.20
2023-04-15T09:29:09.685Z,2.05
2023-04-15T09:34:13.512Z,2.28
2023-04-15T09:39:18.430Z,1.73
2023-04-15T09:44:25.159Z,2.47
2023-04-15T09:49:29.882Z,2.10
2023-04-15T09:54:39.994Z,2.47
2023-04-15T09:59:43.471Z,1.92
2023-04-15T10:04:50.029Z,2.42
2023-04-15T10:09:55.949Z,2.67
2023-04-15T10:15:04.923Z,2.13
2023-04-15T10:20:12.534Z,2.03
2023-04-15T10:25:17.763Z,2.25
2023-04-15T10:30:22.013Z,2.70
2023-04-15T10:35:26.413Z,2.47
2023-04-15T10:40:33.452Z,2.47
2023-04-15T10:45:38.935Z,2.20
2023-04-15T10:50:42.405Z,3.00
2023-04-15T10:55:47.308Z,2.10
2023-04-15T11:00:54.845Z,1.75
2023-04-15T11:05:58.292Z,2.75
2023-04-15T11:11:03.101Z,1.55
2023-04-15T11:16:07.494Z,2.40
2023-04-15T11:21:11.156Z,1.90
2023-04-15T11:26:16.274Z,2.60
2023-04-15T11:31:21.066Z,2.38
2023-04-15T11:36:28.255Z,2.22
2023-04-15T11:41:33.262Z,2.40
2023-04-15T11:46:36.789Z,2.95
2023-04-15T11:51:40.419Z,2.58
2023-04-15T11:56:52.838Z,2.85
2023-04-15T12:01:56.444Z,2.92
2023-04-15T12:07:07.536Z,2.30
2023-04-15T12:12:12.757Z,2.70
2023-04-15T12:17:16.677Z,2.30
2023-04-15T12:22:20.576Z,2.78
2023-04-15T12:27:29.810Z,2.33
2023-04-15T12:32:37.537Z,2.05
2023-04-15T12:37:41.140Z,1.40
2023-04-15T12:42:45.968Z,2.90
2023-04-15T12:47:49.894Z,3.05
2023-04-15T12:52:53.385Z,2.30
2023-04-15T12:57:58.394Z,2.40
2023-04-15T13:03:03.458Z,2.97
2023-04-15T13:08:08.587Z,2.88
2023-04-15T13:13:13.384Z,3.10
2023-04-15T13:18:16.993Z,2.78
2023-04-15T13:23:20.437Z,2.97
2023-04-15T13:28:25.327Z,2.80
2023-04-15T13:33:29.009Z,3.83
2023-04-15T13:38:32.524Z,3.03
2023-04-15T13:43:37.580Z,2.63
2023-04-15T13:48:41.149Z,3.28
2023-04-15T13:53:44.610Z,2.65
2023-04-15T13:58:49.478Z,3.00
2023-04-15T14:03:53.026Z,3.35
2023-04-15T14:08:56.703Z,2.65
2023-04-15T14:14:01.586Z,2.85
2023-04-15T14:19:05.332Z,5.07
2023-04-15T14:24:09.142Z,3.28
2023-04-15T14:29:14.251Z,3.15
2023-04-15T14:34:18.007Z,3.00
2023-04-15T14:39:21.627Z,3.50
2023-04-15T14:44:26.499Z,3.15
2023-04-15T14:49:30.440Z,3.95
2023-04-15T14:54:33.955Z,3.10
2023-04-15T14:59:38.743Z,2.58
2023-04-15T15:04:42.306Z,3.53
2023-04-15T15:09:46.176Z,3.05
2023-04-15T15:14:51.171Z,2.58
2023-04-15T15:19:54.707Z,3.22
2023-04-15T15:24:59.189Z,1.95
2023-04-15T15:30:04.399Z,3.33
2023-04-15T15:35:09.252Z,3.38
2023-04-15T15:40:14.185Z,2.88
2023-04-15T15:45:19.437Z,3.22
2023-04-15T15:50:22.938Z,2.67
2023-04-15T15:55:27.220Z,3.65
2023-04-15T16:00:32.093Z,2.45
2023-04-15T16:05:35.940Z,2.67
2023-04-15T16:10:39.890Z,2.95
2023-04-15T16:15:44.823Z,3.10
2023-04-15T16:20:48.256Z,3.38
2023-04-15T16:25:53.138Z,3.55
2023-04-15T16:30:58.313Z,3.05
2023-04-15T16:36:01.966Z,2.40
2023-04-15T16:41:05.582Z,3.05
2023-04-15T16:46:10.597Z,3.08
2023-04-15T16:51:14.183Z,2.95
2023-04-15T16:56:17.744Z,4.30
2023-04-15T17:01:23.421Z,2.28
2023-04-15T17:06:26.983Z,2.95
2023-04-15T17:11:31.301Z,2.78
2023-04-15T17:16:36.247Z,3.13
2023-04-15T17:21:39.725Z,4.35
2023-04-15T17:26:43.148Z,2.80
2023-04-15T17:31:48.097Z,3.08
2023-04-15T17:36:53.557Z,2.63
2023-04-15T17:41:58.816Z,2.53
2023-04-15T17:47:03.969Z,2.58
2023-04-15T17:52:08.002Z,1.98
2023-04-15T17:57:11.460Z,2.63
2023-04-15T18:02:17.016Z,2.55
2023-04-15T18:07:20.778Z,3.10
2023-04-15T18:12:24.342Z,3.25
2023-04-15T18:17:29.523Z,4.28
2023-04-15T18:22:33.140Z,2.78
2023-04-15T18:27:39.288Z,3.85
2023-04-15T18:32:44.566Z,2.92
2023-04-15T18:37:48.199Z,2.72
2023-04-15T18:42:52.556Z,2.67
2023-04-15T18:47:57.553Z,3.03
2023-04-15T18:53:01.120Z,2.58
2023-04-15T18:58:08.692Z,2.60
2023-04-15T19:03:14.768Z,3.13
2023-04-15T19:08:18.301Z,2.58
2023-04-15T19:13:22.960Z,2.47
2023-04-15T19:18:28.079Z,3.50
2023-04-15T19:23:32.729Z,2.70
2023-04-15T19:28:36.371Z,3.47
2023-04-15T19:33:41.234Z,2.33
2023-04-15T19:38:45.026Z,3.00
2023-04-15T19:43:48.503Z,3.10
2023-04-15T19:48:53.812Z,3.35
2023-04-15T19:53:57.361Z,3.22
2023-04-15T19:59:01.762Z,3.83
2023-04-15T20:04:06.962Z,3.55
2023-04-15T20:09:11.530Z,3.55
2023-04-15T20:14:15.131Z,3.75
2023-04-15T20:19:20.117Z,3.67
2023-04-15T20:24:24.279Z,3.85
2023-04-15T20:29:27.809Z,3.10
2023-04-15T20:34:32.616Z,4.03
2023-04-15T20:39:36.140Z,3.95
2023-04-15T20:44:39.844Z,3.10
2023-04-15T20:49:44.844Z,2.88
2023-04-15T20:54:48.289Z,2.78
2023-04-15T20:59:52.101Z,3.80
2023-04-15T21:04:59.182Z,2.80
2023-04-15T21:10:02.663Z,3.80
2023-04-15T21:15:07.674Z,3.65
2023-04-15T21:20:14.333Z,3.75
2023-04-15T21:25:17.781Z,2.97
2023-04-15T21:30:23.672Z,2.63
2023-04-15T21:35:30.241Z,3.60
2023-04-15T21:40:40.207Z,2.97
2023-04-15T21:46:23.537Z,3.22
2023-04-15T21:51:11.383Z,2.97
2023-04-15T21:56:15.124Z,3.50
2023-04-15T22:01:19.014Z,2.97
2023-04-15T22:06:23.978Z,3.20
2023-04-15T22:11:28.431Z,3.60
2023-04-15T22:16:32.245Z,4.72
2023-04-15T22:21:37.185Z,3.30
2023-04-15T22:26:40.778Z,3.33
2023-04-15T22:31:44.473Z,2.50
2023-04-15T22:36:49.617Z,3.50
2023-04-15T22:41:53.141Z,3.25
2023-04-15T22:46:56.672Z,2.80
2023-04-15T22:52:01.845Z,4.65
2023-04-15T22:57:05.535Z,3.60
2023-04-15T23:02:09.253Z,3.35
2023-04-15T23:07:14.219Z,3.55
2023-04-15T23:12:17.965Z,3.83
2023-04-15T23:17:21.608Z,3.35
2023-04-15T23:22:26.562Z,4.05
2023-04-15T23:27:30.577Z,3.03
2023-04-15T23:32:34.211Z,4.68
2023-04-15T23:37:41.768Z,2.88
2023-04-15T23:42:45.442Z,4.28
2023-04-15T23:47:50.295Z,5.35
2023-04-15T23:52:55.856Z,3.85
2023-04-15T23:57:59.318Z,2.83
